createdAt,value
2023-04-02T00:00:02.225Z,37.13
2023-04-02T00:01:01.793Z,41.62
2023-04-02T00:02:01.725Z,40.74
2023-04-02T00:03:01.927Z,38.96
2023-04-02T00:04:01.762Z,37.88
2023-04-02T00:05:00.679Z,37.00
2023-04-02T00:06:01.662Z,40.15
2023-04-02T00:07:00.655Z,39.42
2023-04-02T00:08:01.673Z,36.85
2023-04-02T00:09:01.677Z,36.89
2023-04-02T00:10:01.661Z,39.87
2023-04-02T00:11:00.626Z,32.73
2023-04-02T00:12:01.616Z,40.27
2023-04-02T00:13:01.636Z,37.30
2023-04-02T00:14:00.608Z,37.55
2023-04-02T00:15:01.611Z,38.83
2023-04-02T00:16:01.609Z,36.83
2023-04-02T00:17:01.606Z,36.12
2023-04-02T00:18:00.627Z,37.39
2023-04-02T00:19:00.561Z,38.09
2023-04-02T00:20:01.569Z,36.99
2023-04-02T00:21:01.563Z,38.20
2023-04-02T00:22:01.358Z,37.38
2023-04-02T00:23:01.557Z,39.91
2023-04-02T00:24:01.518Z,37.28
2023-04-02T00:25:01.533Z,34.85
2023-04-02T00:26:01.620Z,38.09
2023-04-02T00:27:00.512Z,35.88
2023-04-02T00:28:01.504Z,36.90
2023-04-02T00:29:01.502Z,36.48
2023-04-02T00:30:00.498Z,37.61
2023-04-02T00:31:01.489Z,35.65
2023-04-02T00:32:01.521Z,39.88
2023-04-02T00:33:01.513Z,37.37
2023-04-02T00:34:01.462Z,37.06
2023-04-02T00:35:00.469Z,40.25
2023-04-02T00:36:01.499Z,36.96
2023-04-02T00:37:01.446Z,37.94
2023-04-02T00:38:00.451Z,37.29
2023-04-02T00:39:00.453Z,35.66
2023-04-02T00:40:00.417Z,37.36
2023-04-02T00:41:01.415Z,36.87
2023-04-02T00:42:01.439Z,36.01
2023-04-02T00:43:01.414Z,37.75
2023-04-02T00:44:01.397Z,37.18
2023-04-02T00:45:01.398Z,37.75
2023-04-02T00:46:00.471Z,37.48
2023-04-02T00:47:01.367Z,37.51
2023-04-02T00:48:01.448Z,36.24
2023-04-02T00:49:01.359Z,38.61
2023-04-02T00:50:01.360Z,38.64
2023-04-02T00:51:01.358Z,39.46
2023-04-02T00:52:01.359Z,38.28
2023-04-02T00:53:01.365Z,37.48
2023-04-02T00:54:01.312Z,36.26
2023-04-02T00:55:01.322Z,37.17
2023-04-02T00:56:01.298Z,36.21
2023-04-02T00:57:01.359Z,35.94
2023-04-02T00:58:00.392Z,36.06
2023-04-02T00:59:01.309Z,37.80
2023-04-02T01:00:00.325Z,37.26
2023-04-02T01:01:01.380Z,36.57
2023-04-02T01:02:00.359Z,36.09
2023-04-02T01:03:01.484Z,36.22
2023-04-02T01:05:00.438Z,37.21
2023-04-02T01:06:01.443Z,37.94
2023-04-02T01:07:01.451Z,34.78
2023-04-02T01:08:01.453Z,36.60
2023-04-02T01:09:01.466Z,37.05
2023-04-02T01:10:01.462Z,38.64
2023-04-02T01:11:01.484Z,38.21
2023-04-02T01:12:00.503Z,33.61
2023-04-02T01:13:01.512Z,36.99
2023-04-02T01:14:00.547Z,36.75
2023-04-02T01:15:01.549Z,37.43
2023-04-02T01:16:01.588Z,35.34
2023-04-02T01:17:00.549Z,39.57
2023-04-02T01:18:01.673Z,35.28
2023-04-02T01:19:00.579Z,36.59
2023-04-02T01:20:00.604Z,36.28
2023-04-02T01:21:00.619Z,35.64
2023-04-02T01:22:01.633Z,37.31
2023-04-02T01:23:01.637Z,36.83
2023-04-02T01:24:00.635Z,37.80
2023-04-02T01:25:01.632Z,36.42
2023-04-02T01:26:01.640Z,37.05
2023-04-02T01:27:01.656Z,35.43
2023-04-02T01:28:01.639Z,35.18
2023-04-02T01:29:01.638Z,37.39
2023-04-02T01:30:01.682Z,34.49
2023-04-02T01:31:01.709Z,36.21
2023-04-02T01:32:01.655Z,36.23
2023-04-02T01:33:00.712Z,33.29
2023-04-02T01:34:01.692Z,36.13
2023-04-02T01:35:00.729Z,36.57
2023-04-02T01:36:01.774Z,34.14
2023-04-02T01:37:01.728Z,35.44
2023-04-02T01:38:00.736Z,39.24
2023-04-02T01:39:01.752Z,36.97
2023-04-02T01:40:01.760Z,34.31
2023-04-02T01:41:01.772Z,36.06
2023-04-02T01:42:01.783Z,36.75
2023-04-02T01:43:01.784Z,35.38
2023-04-02T01:44:01.796Z,38.71
2023-04-02T01:45:01.826Z,37.02
2023-04-02T01:46:01.844Z,35.31
2023-04-02T01:47:01.827Z,36.18
2023-04-02T01:48:01.914Z,35.92
2023-04-02T01:49:01.869Z,35.31
2023-04-02T01:50:01.890Z,35.17
2023-04-02T01:51:01.920Z,36.74
2023-04-02T01:52:01.955Z,32.56
2023-04-02T01:53:01.960Z,35.88
2023-04-02T01:54:01.971Z,38.01
2023-04-02T01:55:00.996Z,34.56
2023-04-02T01:56:02.008Z,34.56
2023-04-02T01:57:01.088Z,37.41
2023-04-02T01:58:02.065Z,35.63
2023-04-02T01:59:02.088Z,34.80
2023-04-02T02:00:02.103Z,36.04
2023-04-02T02:01:02.154Z,34.40
2023-04-02T02:02:01.223Z,36.66
2023-04-02T02:03:01.197Z,33.01
2023-04-02T02:04:01.196Z,32.12
2023-04-02T02:05:01.174Z,34.87
2023-04-02T02:06:02.209Z,35.61
2023-04-02T02:07:02.230Z,35.07
2023-04-02T02:08:02.243Z,34.91
2023-04-02T02:09:02.251Z,33.62
2023-04-02T02:10:02.279Z,37.11
2023-04-02T02:11:02.279Z,33.65
2023-04-02T02:12:02.293Z,35.25
2023-04-02T02:13:02.310Z,35.34
2023-04-02T02:14:02.362Z,34.26
2023-04-02T02:15:02.363Z,37.97
2023-04-02T02:16:02.421Z,33.33
2023-04-02T02:17:02.429Z,34.26
2023-04-02T02:18:01.510Z,33.16
2023-04-02T02:19:02.472Z,34.70
2023-04-02T02:20:02.509Z,36.11
2023-04-02T02:21:02.498Z,35.92
2023-04-02T02:22:01.528Z,33.02
2023-04-02T02:23:02.555Z,33.47
2023-04-02T02:24:01.561Z,35.15
2023-04-02T02:25:02.601Z,35.42
2023-04-02T02:26:01.642Z,32.37
2023-04-02T02:27:01.632Z,37.51
2023-04-02T02:28:02.674Z,35.33
2023-04-02T02:29:02.693Z,33.31
2023-04-02T02:30:02.713Z,34.65
2023-04-02T02:31:01.730Z,34.73
2023-04-02T02:32:02.806Z,35.82
2023-04-02T02:33:02.826Z,33.60
2023-04-02T02:34:02.834Z,32.70
2023-04-02T02:35:02.825Z,33.32
2023-04-02T02:36:02.895Z,35.40
2023-04-02T02:37:01.871Z,36.13
2023-04-02T02:38:02.941Z,33.76
2023-04-02T02:39:02.076Z,35.93
2023-04-02T02:40:02.942Z,33.24
2023-04-02T02:41:01.968Z,33.10
2023-04-02T02:42:02.988Z,32.75
2023-04-02T02:43:02.014Z,35.35
2023-04-02T02:44:03.072Z,33.41
2023-04-02T02:45:02.080Z,33.16
2023-04-02T02:46:03.121Z,33.22
2023-04-02T02:47:03.126Z,32.29
2023-04-02T02:48:03.187Z,32.65
2023-04-02T02:49:03.205Z,35.95
2023-04-02T02:50:02.273Z,32.16
2023-04-02T02:51:03.258Z,32.84
2023-04-02T02:52:02.287Z,33.59
2023-04-02T02:53:03.289Z,33.69
2023-04-02T02:54:03.316Z,32.89
2023-04-02T02:55:03.344Z,32.89
2023-04-02T02:56:03.375Z,34.99
2023-04-02T02:57:03.391Z,33.56
2023-04-02T02:58:03.415Z,37.56
2023-04-02T02:59:03.426Z,33.11
2023-04-02T03:00:03.474Z,33.30
2023-04-02T03:01:03.532Z,35.93
2023-04-02T03:02:03.535Z,32.52
2023-04-02T03:03:02.677Z,34.85
2023-04-02T03:04:03.645Z,33.04
2023-04-02T03:05:03.546Z,32.85
2023-04-02T03:06:03.608Z,31.12
2023-04-02T03:07:02.602Z,36.62
2023-04-02T03:08:03.605Z,33.80
2023-04-02T03:09:02.605Z,33.73
2023-04-02T03:10:03.631Z,36.70
2023-04-02T03:11:03.636Z,34.70
2023-04-02T03:12:03.653Z,36.75
2023-04-02T03:13:03.680Z,31.33
2023-04-02T03:14:03.712Z,32.93
2023-04-02T03:15:02.707Z,34.15
2023-04-02T03:16:03.805Z,32.34
2023-04-02T03:17:03.794Z,33.98
2023-04-02T03:18:03.780Z,36.64
2023-04-02T03:19:03.787Z,30.46
2023-04-02T03:20:03.807Z,35.07
2023-04-02T03:21:03.819Z,30.36
2023-04-02T03:22:03.893Z,33.79
2023-04-02T03:23:03.854Z,35.05
2023-04-02T03:24:03.886Z,32.78
2023-04-02T03:25:03.896Z,31.46
2023-04-02T03:26:03.933Z,33.37
2023-04-02T03:27:03.940Z,33.51
2023-04-02T03:28:04.016Z,32.76
2023-04-02T03:29:04.022Z,30.96
2023-04-02T03:30:04.090Z,31.46
2023-04-02T03:31:04.169Z,33.13
2023-04-02T03:32:04.095Z,31.37
2023-04-02T03:33:03.218Z,31.53
2023-04-02T03:34:04.192Z,33.20
2023-04-02T03:35:04.173Z,35.14
2023-04-02T03:36:04.237Z,31.46
2023-04-02T03:37:04.257Z,33.58
2023-04-02T03:38:04.291Z,31.91
2023-04-02T03:39:04.348Z,34.37
2023-04-02T03:40:03.337Z,32.22
2023-04-02T03:41:04.355Z,31.63
2023-04-02T03:42:04.375Z,32.48
2023-04-02T03:43:04.429Z,30.43
2023-04-02T03:44:04.454Z,33.57
2023-04-02T03:45:04.492Z,31.77
2023-04-02T03:46:04.546Z,30.01
2023-04-02T03:47:04.556Z,34.33
2023-04-02T03:48:03.650Z,33.12
2023-04-02T03:49:04.651Z,31.63
2023-04-02T03:50:03.657Z,32.79
2023-04-02T03:51:03.697Z,34.45
2023-04-02T03:52:03.745Z,33.77
2023-04-02T03:53:04.755Z,32.55
2023-04-02T03:54:04.845Z,32.97
2023-04-02T03:55:04.855Z,30.38
2023-04-02T03:56:03.869Z,29.93
2023-04-02T03:57:05.035Z,29.56
2023-04-02T03:58:04.936Z,33.56
2023-04-02T03:59:03.953Z,32.62
2023-04-02T04:00:04.005Z,32.45
2023-04-02T04:01:04.034Z,35.06
2023-04-02T04:02:05.092Z,31.40
2023-04-02T04:03:04.124Z,30.87
2023-04-02T04:04:05.174Z,32.63
2023-04-02T04:05:05.167Z,31.01
2023-04-02T04:06:04.191Z,33.21
2023-04-02T04:07:05.220Z,31.13
2023-04-02T04:08:05.249Z,31.79
2023-04-02T04:09:05.276Z,30.91
2023-04-02T04:10:04.333Z,31.01
2023-04-02T04:11:05.344Z,32.43
2023-04-02T04:12:04.349Z,30.78
2023-04-02T04:13:05.415Z,30.24
2023-04-02T04:14:04.430Z,29.72
2023-04-02T04:15:05.450Z,31.01
2023-04-02T04:16:04.488Z,30.12
2023-04-02T04:17:05.508Z,31.66
2023-04-02T04:18:05.575Z,29.64
2023-04-02T04:19:04.577Z,31.50
2023-04-02T04:20:05.605Z,28.53
2023-04-02T04:21:04.640Z,30.83
2023-04-02T04:22:05.672Z,30.10
2023-04-02T04:23:05.719Z,32.37
2023-04-02T04:24:05.790Z,30.44
2023-04-02T04:25:05.847Z,27.82
2023-04-02T04:26:04.837Z,32.96
2023-04-02T04:27:05.869Z,31.83
2023-04-02T04:28:05.938Z,30.02
2023-04-02T04:29:05.915Z,31.33
2023-04-02T04:30:06.202Z,32.34
2023-04-02T04:31:04.978Z,29.98
2023-04-02T04:32:06.101Z,28.74
2023-04-02T04:33:05.119Z,29.84
2023-04-02T04:34:05.082Z,27.70
2023-04-02T04:35:06.103Z,27.90
2023-04-02T04:36:06.184Z,30.06
2023-04-02T04:37:05.171Z,29.23
2023-04-02T04:38:06.214Z,31.57
2023-04-02T04:39:05.262Z,27.80
2023-04-02T04:40:06.317Z,29.55
2023-04-02T04:41:06.329Z,29.60
2023-04-02T04:42:05.387Z,32.70
2023-04-02T04:43:06.400Z,29.64
2023-04-02T04:44:06.465Z,31.79
2023-04-02T04:45:05.497Z,29.66
2023-04-02T04:46:06.519Z,32.71
2023-04-02T04:47:06.553Z,28.11
2023-04-02T04:48:06.642Z,30.27
2023-04-02T04:49:06.647Z,32.07
2023-04-02T04:50:06.693Z,27.60
2023-04-02T04:51:06.715Z,29.61
2023-04-02T04:52:06.743Z,30.20
2023-04-02T04:53:06.783Z,30.24
2023-04-02T04:54:06.826Z,29.58
2023-04-02T04:55:06.854Z,28.57
2023-04-02T04:56:18.824Z,28.00
2023-04-02T04:57:06.905Z,28.33
2023-04-02T04:58:06.904Z,28.95
2023-04-02T04:59:06.874Z,29.52
2023-04-02T05:00:06.851Z,29.46
2023-04-02T05:01:06.894Z,31.06
2023-04-02T05:02:06.873Z,29.84
2023-04-02T05:03:06.873Z,30.18
2023-04-02T05:04:06.828Z,31.80
2023-04-02T05:05:06.832Z,29.35
2023-04-02T05:06:05.862Z,28.81
2023-04-02T05:07:06.867Z,29.70
2023-04-02T05:08:06.837Z,29.54
2023-04-02T05:09:06.813Z,29.58
2023-04-02T05:10:06.792Z,30.37
2023-04-02T05:11:06.774Z,29.65
2023-04-02T05:12:06.785Z,30.43
2023-04-02T05:13:06.764Z,30.21
2023-04-02T05:14:07.180Z,29.81
2023-04-02T05:15:06.753Z,31.42
2023-04-02T05:16:05.799Z,31.31
2023-04-02T05:17:06.735Z,29.69
2023-04-02T05:18:06.781Z,31.56
2023-04-02T05:19:06.728Z,30.54
2023-04-02T05:20:05.758Z,29.01
2023-04-02T05:21:06.728Z,29.43
2023-04-02T05:22:06.703Z,29.20
2023-04-02T05:23:06.696Z,31.47
2023-04-02T05:24:06.711Z,30.09
2023-04-02T05:25:05.679Z,30.62
2023-04-02T05:26:06.688Z,31.53
2023-04-02T05:27:06.728Z,30.42
2023-04-02T05:28:06.649Z,29.61
2023-04-02T05:29:05.646Z,29.53
2023-04-02T05:30:05.682Z,30.76
2023-04-02T05:31:06.691Z,30.51
2023-04-02T05:32:06.639Z,30.51
2023-04-02T05:33:06.697Z,30.93
2023-04-02T05:34:05.688Z,30.15
2023-04-02T05:35:06.761Z,30.41
2023-04-02T05:36:06.799Z,31.06
2023-04-02T05:37:07.197Z,29.23
2023-04-02T05:38:06.856Z,31.80
2023-04-02T05:39:06.884Z,28.62
2023-04-02T05:40:06.908Z,30.49
2023-04-02T05:41:06.939Z,30.65
2023-04-02T05:42:06.982Z,29.70
2023-04-02T05:43:06.011Z,30.27
2023-04-02T05:44:07.056Z,32.10
2023-04-02T05:45:06.076Z,30.82
2023-04-02T05:46:07.181Z,30.19
2023-04-02T05:47:07.141Z,30.23
2023-04-02T05:48:06.218Z,32.24
2023-04-02T05:49:07.234Z,31.42
2023-04-02T05:50:07.263Z,29.72
2023-04-02T05:51:07.290Z,31.96
2023-04-02T05:52:07.340Z,31.78
2023-04-02T05:53:07.365Z,29.95
2023-04-02T05:54:07.419Z,33.21
2023-04-02T05:55:06.452Z,30.08
2023-04-02T05:56:07.482Z,31.11
2023-04-02T05:57:07.540Z,30.58
2023-04-02T05:59:07.543Z,31.68
2023-04-02T06:00:07.539Z,32.07
2023-04-02T06:01:07.536Z,31.78
2023-04-02T06:02:07.589Z,32.15
2023-04-02T06:03:06.615Z,29.92
2023-04-02T06:04:06.615Z,32.15
2023-04-02T06:05:06.500Z,31.66
2023-04-02T06:06:07.500Z,30.64
2023-04-02T06:07:07.501Z,30.85
2023-04-02T06:08:07.477Z,29.43
2023-04-02T06:09:06.466Z,29.56
2023-04-02T06:10:07.475Z,31.62
2023-04-02T06:11:06.465Z,30.22
2023-04-02T06:12:07.470Z,31.20
2023-04-02T06:13:07.495Z,32.28
2023-04-02T06:14:07.433Z,31.15
2023-04-02T06:15:07.448Z,31.48
2023-04-02T06:16:07.431Z,31.87
2023-04-02T06:17:07.417Z,33.10
2023-04-02T06:18:07.459Z,30.33
2023-04-02T06:19:07.414Z,34.25
2023-04-02T06:20:07.418Z,30.11
2023-04-02T06:21:06.392Z,32.05
2023-04-02T06:22:07.407Z,32.26
2023-04-02T06:23:07.392Z,31.75
2023-04-02T06:24:06.364Z,33.61
2023-04-02T06:25:07.382Z,33.09
2023-04-02T06:26:07.373Z,32.68
2023-04-02T06:27:07.378Z,30.72
2023-04-02T06:28:06.347Z,33.63
2023-04-02T06:29:07.356Z,32.44
2023-04-02T06:30:07.367Z,30.49
2023-04-02T06:31:07.320Z,31.23
2023-04-02T06:32:06.323Z,29.26
2023-04-02T06:33:06.460Z,30.91
2023-04-02T06:34:07.385Z,29.91
2023-04-02T06:35:06.389Z,32.93
2023-04-02T06:36:07.468Z,29.44
2023-04-02T06:37:07.503Z,29.27
2023-04-02T06:38:07.503Z,30.13
2023-04-02T06:39:07.565Z,30.98
2023-04-02T06:40:06.580Z,33.04
2023-04-02T06:41:06.635Z,27.69
2023-04-02T06:42:06.661Z,29.91
2023-04-02T06:43:07.719Z,30.90
2023-04-02T06:44:07.726Z,29.86
2023-04-02T06:45:07.758Z,27.67
2023-04-02T06:46:07.829Z,29.42
2023-04-02T06:47:07.817Z,31.21
2023-04-02T06:48:07.871Z,31.00
2023-04-02T06:49:07.894Z,28.69
2023-04-02T06:50:06.918Z,30.23
2023-04-02T06:51:07.917Z,29.75
2023-04-02T06:52:07.931Z,28.93
2023-04-02T06:53:07.946Z,28.42
2023-04-02T06:54:06.961Z,28.65
2023-04-02T06:55:07.061Z,29.34
2023-04-02T06:56:08.007Z,29.64
2023-04-02T06:57:08.078Z,28.91
2023-04-02T06:58:08.089Z,31.29
2023-04-02T06:59:08.119Z,29.59
2023-04-02T07:00:08.162Z,29.45
2023-04-02T07:01:08.266Z,29.57
2023-04-02T07:02:08.227Z,30.89
2023-04-02T07:03:07.286Z,27.41
2023-04-02T07:04:07.294Z,28.22
2023-04-02T07:05:08.446Z,31.96
2023-04-02T07:06:08.398Z,28.82
2023-04-02T07:07:08.413Z,29.31
2023-04-02T07:08:08.453Z,30.63
2023-04-02T07:09:08.468Z,29.14
2023-04-02T07:10:08.513Z,28.62
2023-04-02T07:11:07.548Z,30.12
2023-04-02T07:12:08.593Z,28.79
2023-04-02T07:13:08.632Z,29.12
2023-04-02T07:14:07.674Z,30.72
2023-04-02T07:15:08.699Z,30.11
2023-04-02T07:16:08.751Z,29.74
2023-04-02T07:17:08.757Z,28.79
2023-04-02T07:18:08.854Z,29.07
2023-04-02T07:19:08.834Z,27.45
2023-04-02T07:20:07.868Z,27.93
2023-04-02T07:21:08.894Z,28.46
2023-04-02T07:22:08.941Z,28.90
2023-04-02T07:23:08.966Z,27.62
2023-04-02T07:24:08.967Z,27.37
2023-04-02T07:25:09.019Z,25.55
2023-04-02T07:26:09.058Z,26.83
2023-04-02T07:27:09.086Z,28.81
2023-04-02T07:28:09.105Z,31.25
2023-04-02T07:29:09.144Z,26.85
2023-04-02T07:30:09.178Z,27.42
2023-04-02T07:31:09.221Z,28.73
2023-04-02T07:32:09.239Z,29.68
2023-04-02T07:33:08.322Z,28.31
2023-04-02T07:34:09.323Z,28.85
2023-04-02T07:35:09.348Z,28.79
2023-04-02T07:36:09.403Z,26.83
2023-04-02T07:37:08.434Z,27.06
2023-04-02T07:38:09.488Z,29.56
2023-04-02T07:39:09.503Z,30.58
2023-04-02T07:40:08.555Z,29.69
2023-04-02T07:41:09.590Z,28.03
2023-04-02T07:42:09.629Z,28.27
2023-04-02T07:43:08.665Z,30.88
2023-04-02T07:44:09.711Z,28.96
2023-04-02T07:45:09.738Z,30.31
2023-04-02T07:46:09.836Z,28.53
2023-04-02T07:47:08.808Z,28.41
2023-04-02T07:48:09.912Z,27.66
2023-04-02T07:49:09.868Z,26.72
2023-04-02T07:50:09.921Z,27.00
2023-04-02T07:51:09.966Z,29.32
2023-04-02T07:52:09.982Z,29.88
2023-04-02T07:53:09.016Z,31.07
2023-04-02T07:54:09.103Z,30.46
2023-04-02T07:55:10.124Z,28.73
2023-04-02T07:56:09.174Z,32.41
2023-04-02T07:57:10.214Z,29.61
2023-04-02T07:58:10.200Z,29.71
2023-04-02T07:59:10.182Z,29.62
2023-04-02T08:00:10.219Z,30.10
2023-04-02T08:01:10.169Z,29.29
2023-04-02T08:02:10.220Z,27.75
2023-04-02T08:03:10.229Z,28.31
2023-04-02T08:04:09.175Z,30.00
2023-04-02T08:05:10.152Z,26.25
2023-04-02T08:06:10.172Z,28.45
2023-04-02T08:07:10.214Z,27.54
2023-04-02T08:08:10.113Z,27.26
2023-04-02T08:09:10.111Z,29.46
2023-04-02T08:10:10.149Z,30.96
2023-04-02T08:11:09.121Z,30.10
2023-04-02T08:12:09.097Z,30.38
2023-04-02T08:13:09.087Z,28.29
2023-04-02T08:14:10.088Z,27.47
2023-04-02T08:15:10.090Z,31.72
2023-04-02T08:16:10.113Z,26.97
2023-04-02T08:17:10.082Z,28.04
2023-04-02T08:18:10.074Z,27.68
2023-04-02T08:19:09.051Z,27.70
2023-04-02T08:20:10.049Z,27.28
2023-04-02T08:21:10.057Z,27.55
2023-04-02T08:22:10.032Z,29.32
2023-04-02T08:23:10.025Z,29.18
2023-04-02T08:24:09.025Z,30.92
2023-04-02T08:25:10.017Z,28.41
2023-04-02T08:26:10.042Z,28.02
2023-04-02T08:27:10.034Z,26.98
2023-04-02T08:28:10.061Z,29.32
2023-04-02T08:29:10.103Z,29.12
2023-04-02T08:30:10.134Z,30.42
2023-04-02T08:31:10.234Z,28.16
2023-04-02T08:32:10.205Z,27.36
2023-04-02T08:33:09.314Z,29.15
2023-04-02T08:34:10.249Z,28.48
2023-04-02T08:35:10.303Z,29.75
2023-04-02T08:36:10.337Z,30.26
2023-04-02T08:37:09.373Z,29.96
2023-04-02T08:38:10.389Z,30.20
2023-04-02T08:39:10.404Z,29.09
2023-04-02T08:40:10.453Z,31.31
2023-04-02T08:41:10.477Z,28.35
2023-04-02T08:42:10.542Z,27.33
2023-04-02T08:43:10.550Z,29.32
2023-04-02T08:44:10.586Z,29.74
2023-04-02T08:45:23.531Z,30.47
2023-04-02T08:46:10.673Z,30.53
2023-04-02T08:47:10.623Z,30.67
2023-04-02T08:48:10.603Z,31.48
2023-04-02T08:49:09.611Z,30.89
2023-04-02T08:50:10.592Z,30.24
2023-04-02T08:51:10.596Z,32.62
2023-04-02T08:52:10.613Z,33.41
2023-04-02T08:53:09.570Z,28.00
2023-04-02T08:54:10.556Z,29.60
2023-04-02T08:55:10.553Z,29.11
2023-04-02T08:56:09.590Z,29.60
2023-04-02T08:57:10.597Z,28.90
2023-04-02T08:58:09.570Z,31.85
2023-04-02T08:59:10.526Z,28.92
2023-04-02T09:00:10.530Z,30.13
2023-04-02T09:01:10.583Z,29.40
2023-04-02T09:02:09.547Z,26.77
2023-04-02T09:03:10.617Z,31.45
2023-04-02T09:04:10.490Z,31.70
2023-04-02T09:05:10.568Z,26.87
2023-04-02T09:06:10.475Z,28.27
2023-04-02T09:07:10.472Z,27.56
2023-04-02T09:08:10.488Z,29.37
2023-04-02T09:09:09.471Z,29.69
2023-04-02T09:10:09.474Z,26.30
2023-04-02T09:11:10.456Z,29.50
2023-04-02T09:12:10.448Z,28.47
2023-04-02T09:13:10.448Z,29.90
2023-04-02T09:14:09.469Z,32.80
2023-04-02T09:15:10.432Z,32.05
2023-04-02T09:16:10.477Z,26.99
2023-04-02T09:17:09.405Z,31.37
2023-04-02T09:18:09.458Z,28.82
2023-04-02T09:19:09.389Z,28.99
2023-04-02T09:20:09.393Z,28.29
2023-04-02T09:21:09.386Z,25.24
2023-04-02T09:22:10.376Z,30.10
2023-04-02T09:23:10.374Z,27.56
2023-04-02T09:24:10.351Z,26.87
2023-04-02T09:25:09.371Z,27.86
2023-04-02T09:26:10.343Z,27.87
2023-04-02T09:27:10.352Z,27.88
2023-04-02T09:28:09.353Z,28.56
2023-04-02T09:29:10.341Z,25.00
2023-04-02T09:30:10.381Z,29.97
2023-04-02T09:31:09.398Z,28.95
2023-04-02T09:32:09.405Z,27.74
2023-04-02T09:33:10.451Z,26.12
2023-04-02T09:34:09.436Z,29.05
2023-04-02T09:35:22.367Z,29.60
2023-04-02T09:36:10.474Z,29.73
2023-04-02T09:37:10.439Z,30.31
2023-04-02T09:38:10.500Z,30.37
2023-04-02T09:39:10.429Z,29.81
2023-04-02T09:40:09.461Z,30.24
2023-04-02T09:41:10.412Z,27.54
2023-04-02T09:42:10.400Z,29.30
2023-04-02T09:43:10.427Z,28.94
2023-04-02T09:44:10.380Z,28.08
2023-04-02T09:45:10.383Z,27.86
2023-04-02T09:46:10.436Z,30.57
2023-04-02T09:47:10.379Z,29.24
2023-04-02T09:48:10.397Z,28.41
2023-04-02T09:49:10.363Z,26.98
2023-04-02T09:50:10.357Z,26.80
2023-04-02T09:51:10.366Z,30.27
2023-04-02T09:52:10.355Z,28.42
2023-04-02T09:53:10.329Z,29.47
2023-04-02T09:54:10.330Z,30.41
2023-04-02T09:55:09.321Z,28.35
2023-04-02T09:56:09.304Z,28.14
2023-04-02T09:57:10.335Z,28.11
2023-04-02T09:58:10.316Z,29.74
2023-04-02T09:59:10.291Z,29.96
2023-04-02T10:00:18.379Z,31.47
2023-04-02T10:01:10.271Z,31.54
2023-04-02T10:02:10.288Z,31.41
2023-04-02T10:03:09.260Z,32.06
2023-04-02T10:04:10.292Z,31.63
2023-04-02T10:05:10.254Z,32.08
2023-04-02T10:06:10.231Z,27.18
2023-04-02T10:07:10.226Z,33.38
2023-04-02T10:08:10.236Z,25.47
2023-04-02T10:09:10.219Z,31.66
2023-04-02T10:10:10.226Z,30.91
2023-04-02T10:11:10.203Z,29.84
2023-04-02T10:12:10.195Z,30.10
2023-04-02T10:13:10.556Z,27.07
2023-04-02T10:14:09.173Z,30.24
2023-04-02T10:15:10.172Z,30.05
2023-04-02T10:16:10.231Z,27.73
2023-04-02T10:17:10.245Z,30.67
2023-04-02T10:18:10.237Z,30.64
2023-04-02T10:19:10.143Z,32.70
2023-04-02T10:20:09.156Z,27.63
2023-04-02T10:21:09.122Z,28.66
2023-04-02T10:22:09.127Z,30.09
2023-04-02T10:23:10.114Z,32.18
2023-04-02T10:24:10.103Z,27.23
2023-04-02T10:25:10.096Z,29.51
2023-04-02T10:26:09.111Z,31.49
2023-04-02T10:27:10.084Z,31.13
2023-04-02T10:28:10.087Z,30.26
2023-04-02T10:29:10.145Z,30.13
2023-04-02T10:30:09.067Z,28.26
2023-04-02T10:31:09.077Z,31.16
2023-04-02T10:32:10.050Z,32.52
2023-04-02T10:33:09.099Z,30.91
2023-04-02T10:34:10.071Z,29.92
2023-04-02T10:35:10.547Z,27.46
2023-04-02T10:36:09.050Z,30.70
2023-04-02T10:37:10.013Z,31.59
2023-04-02T10:38:09.006Z,29.98
2023-04-02T10:39:08.992Z,30.75
2023-04-02T10:40:10.026Z,29.32
2023-04-02T10:41:09.991Z,29.70
2023-04-02T10:42:09.996Z,30.66
2023-04-02T10:43:09.983Z,31.13
2023-04-02T10:44:19.012Z,29.45
2023-04-02T10:45:09.953Z,29.51
2023-04-02T10:46:09.989Z,29.91
2023-04-02T10:47:09.928Z,27.97
2023-04-02T10:48:09.957Z,30.70
2023-04-02T10:49:09.958Z,30.43
2023-04-02T10:50:09.941Z,31.45
2023-04-02T10:51:08.915Z,31.75
2023-04-02T10:52:09.915Z,30.79
2023-04-02T10:53:09.894Z,31.19
2023-04-02T10:54:09.899Z,29.08
2023-04-02T10:55:09.890Z,27.65
2023-04-02T10:56:09.882Z,29.89
2023-04-02T10:57:09.924Z,31.29
2023-04-02T10:58:09.886Z,30.00
2023-04-02T10:59:09.862Z,30.54
2023-04-02T11:00:09.851Z,29.30
2023-04-02T11:01:09.895Z,27.68
2023-04-02T11:02:09.839Z,29.94
2023-04-02T11:03:08.905Z,28.95
2023-04-02T11:04:09.830Z,30.93
2023-04-02T11:05:09.820Z,31.50
2023-04-02T11:06:12.014Z,30.35
2023-04-02T11:07:14.512Z,31.94
2023-04-02T11:08:09.798Z,32.12
2023-04-02T11:09:08.804Z,32.02
2023-04-02T11:10:09.790Z,32.07
2023-04-02T11:11:09.784Z,32.80
2023-04-02T11:12:09.763Z,29.88
2023-04-02T11:13:08.755Z,29.32
2023-04-02T11:14:08.768Z,30.87
2023-04-02T11:15:09.756Z,30.19
2023-04-02T11:16:09.775Z,28.95
2023-04-02T11:17:08.738Z,31.19
2023-04-02T11:18:09.717Z,29.00
2023-04-02T11:19:08.724Z,27.80
2023-04-02T11:20:09.719Z,31.23
2023-04-02T11:21:08.699Z,28.66
2023-04-02T11:22:08.717Z,29.04
2023-04-02T11:23:09.691Z,30.22
2023-04-02T11:24:09.677Z,31.43
2023-04-02T11:25:08.665Z,29.21
2023-04-02T11:26:09.670Z,28.34
2023-04-02T11:27:09.653Z,30.13
2023-04-02T11:28:08.643Z,30.91
2023-04-02T11:29:08.658Z,30.61
2023-04-02T11:30:08.643Z,29.24
2023-04-02T11:31:09.646Z,29.48
2023-04-02T11:32:08.628Z,29.20
2023-04-02T11:33:08.651Z,27.73
2023-04-02T11:34:09.626Z,29.41
2023-04-02T11:35:08.603Z,30.00
2023-04-02T11:36:09.602Z,30.70
2023-04-02T11:37:09.628Z,30.14
2023-04-02T11:38:09.603Z,30.73
2023-04-02T11:39:17.135Z,24.56
2023-04-02T11:40:09.629Z,24.86
2023-04-02T11:41:08.555Z,25.91
2023-04-02T11:42:09.567Z,28.07
2023-04-02T11:43:09.568Z,29.58
2023-04-02T11:44:09.565Z,32.04
2023-04-02T11:45:09.564Z,33.17
2023-04-02T11:46:08.603Z,33.31
2023-04-02T11:47:08.500Z,30.74
2023-04-02T11:48:09.501Z,28.98
2023-04-02T11:49:08.501Z,32.25
2023-04-02T11:50:09.509Z,29.66
2023-04-02T11:51:08.483Z,30.82
2023-04-02T11:52:12.380Z,30.56
2023-04-02T11:53:08.472Z,30.70
2023-04-02T11:54:08.493Z,31.11
2023-04-02T11:55:09.456Z,31.28
2023-04-02T11:56:09.454Z,31.99
2023-04-02T11:57:08.476Z,35.15
2023-04-02T11:58:09.435Z,29.31
2023-04-02T11:59:08.426Z,29.19
2023-04-02T12:00:09.536Z,33.17
2023-04-02T12:01:09.399Z,33.90
2023-04-02T12:02:09.419Z,32.01
2023-04-02T12:03:09.425Z,31.12
2023-04-02T12:04:09.397Z,30.92
2023-04-02T12:05:09.451Z,33.63
2023-04-02T12:06:09.423Z,32.29
2023-04-02T12:07:09.352Z,30.69
2023-04-02T12:08:09.360Z,29.79
2023-04-02T12:09:09.357Z,31.72
2023-04-02T12:10:09.399Z,29.97
2023-04-02T12:11:09.378Z,30.82
2023-04-02T12:12:08.325Z,29.00
2023-04-02T12:13:08.320Z,30.05
2023-04-02T12:14:09.333Z,29.81
2023-04-02T12:15:08.318Z,26.78
2023-04-02T12:16:08.313Z,27.36
2023-04-02T12:17:10.055Z,30.28
2023-04-02T12:18:09.296Z,32.67
2023-04-02T12:19:09.301Z,28.97
2023-04-02T12:20:09.415Z,30.67
2023-04-02T12:21:09.262Z,31.73
2023-04-02T12:22:09.250Z,29.31
2023-04-02T12:23:08.263Z,29.85
2023-04-02T12:24:09.275Z,33.01
2023-04-02T12:25:09.251Z,30.55
2023-04-02T12:26:09.270Z,28.54
2023-04-02T12:27:09.238Z,31.09
2023-04-02T12:28:09.223Z,30.97
2023-04-02T12:29:09.279Z,32.05
2023-04-02T12:30:09.216Z,33.18
2023-04-02T12:31:09.231Z,32.16
2023-04-02T12:32:08.196Z,30.49
2023-04-02T12:33:09.232Z,27.72
2023-04-02T12:34:08.164Z,29.25
2023-04-02T12:35:09.173Z,30.86
2023-04-02T12:36:08.200Z,27.62
2023-04-02T12:37:09.144Z,32.87
2023-04-02T12:38:09.147Z,27.41
2023-04-02T12:39:09.149Z,27.32
2023-04-02T12:40:09.146Z,29.59
2023-04-02T12:41:08.126Z,32.01
2023-04-02T12:42:09.162Z,33.11
2023-04-02T12:43:09.139Z,30.16
2023-04-02T12:44:08.130Z,29.59
2023-04-02T12:45:08.138Z,30.99
2023-04-02T12:46:08.129Z,29.62
2023-04-02T12:47:08.092Z,29.62
2023-04-02T12:48:09.186Z,28.08
2023-04-02T12:49:09.135Z,28.73
2023-04-02T12:50:09.153Z,31.55
2023-04-02T12:51:09.192Z,29.34
2023-04-02T12:52:09.237Z,32.53
2023-04-02T12:53:09.230Z,32.04
2023-04-02T12:54:09.256Z,28.62